sensor_id;sensor_type;location;lat;lon;timestamp;pressure;altitude;pressure_sealevel;temperature;humidity
4830;BME280;2429;52.586;14.322;2022-07-29T00:02:24;101954.94;;;12.10;60.07
4830;BME280;2429;52.586;14.322;2022-07-29T00:04:52;101949.66;;;12.10;61.10
4830;BME280;2429;52.586;14.322;2022-07-29T00:07:19;101954.25;;;12.06;61.33
4830;BME280;2429;52.586;14.322;2022-07-29T00:09:47;101955.00;;;12.08;61.56
4830;BME280;2429;52.586;14.322;2022-07-29T00:12:22;101960.53;;;12.04;61.67
4830;BME280;2429;52.586;14.322;2022-07-29T00:14:55;101961.31;;;12.06;62.19
4830;BME280;2429;52.586;14.322;2022-07-29T00:17:25;101954.34;;;12.05;61.78
4830;BME280;2429;52.586;14.322;2022-07-29T00:19:52;101954.09;;;12.09;62.10
4830;BME280;2429;52.586;14.322;2022-07-29T00:22:19;101946.91;;;12.12;61.95
4830;BME280;2429;52.586;14.322;2022-07-29T00:24:47;101952.03;;;12.15;61.99
4830;BME280;2429;52.586;14.322;2022-07-29T00:27:16;101955.31;;;12.20;61.83
4830;BME280;2429;52.586;14.322;2022-07-29T00:29:43;101955.38;;;12.18;61.29
4830;BME280;2429;52.586;14.322;2022-07-29T00:32:11;101952.91;;;12.15;61.34
4830;BME280;2429;52.586;14.322;2022-07-29T00:34:56;101947.47;;;12.18;61.53
4830;BME280;2429;52.586;14.322;2022-07-29T00:37:42;101945.06;;;12.14;60.96
4830;BME280;2429;52.586;14.322;2022-07-29T00:40:09;101953.03;;;11.96;60.56
4830;BME280;2429;52.586;14.322;2022-07-29T00:42:46;101954.28;;;11.89;60.88
4830;BME280;2429;52.586;14.322;2022-07-29T00:45:14;101953.91;;;11.79;61.61
4830;BME280;2429;52.586;14.322;2022-07-29T00:47:42;101950.50;;;11.77;61.22
4830;BME280;2429;52.586;14.322;2022-07-29T00:50:10;101951.69;;;11.70;61.36
4830;BME280;2429;52.586;14.322;2022-07-29T00:52:38;101953.56;;;11.68;61.12
4830;BME280;2429;52.586;14.322;2022-07-29T00:55:06;101949.53;;;11.61;61.20
4830;BME280;2429;52.586;14.322;2022-07-29T00:57:34;101941.03;;;11.55;61.68
4830;BME280;2429;52.586;14.322;2022-07-29T01:00:03;101949.25;;;11.49;61.96
4830;BME280;2429;52.586;14.322;2022-07-29T01:02:30;101939.63;;;11.48;61.41
4830;BME280;2429;52.586;14.322;2022-07-29T01:04:57;101941.78;;;11.40;62.00
4830;BME280;2429;52.586;14.322;2022-07-29T01:07:25;101945.28;;;11.41;62.20
4830;BME280;2429;52.586;14.322;2022-07-29T01:09:53;101948.63;;;11.44;62.41
4830;BME280;2429;52.586;14.322;2022-07-29T01:12:27;101947.06;;;11.40;62.72
4830;BME280;2429;52.586;14.322;2022-07-29T01:14:55;101944.50;;;11.38;63.29
4830;BME280;2429;52.586;14.322;2022-07-29T01:22:36;101932.66;;;11.47;63.97
4830;BME280;2429;52.586;14.322;2022-07-29T01:27:43;101925.44;;;11.51;64.17
4830;BME280;2429;52.586;14.322;2022-07-29T01:30:11;101924.66;;;11.49;64.06
4830;BME280;2429;52.586;14.322;2022-07-29T01:32:41;101923.03;;;11.46;64.68
4830;BME280;2429;52.586;14.322;2022-07-29T01:38:08;101912.78;;;11.40;64.03
4830;BME280;2429;52.586;14.322;2022-07-29T01:43:10;101916.84;;;11.30;64.59
4830;BME280;2429;52.586;14.322;2022-07-29T01:48:06;101918.75;;;11.26;65.10
4830;BME280;2429;52.586;14.322;2022-07-29T01:50:45;101904.44;;;11.32;64.86
4830;BME280;2429;52.586;14.322;2022-07-29T01:53:13;101898.06;;;11.18;65.05
4830;BME280;2429;52.586;14.322;2022-07-29T01:55:42;101900.41;;;11.25;64.88
4830;BME280;2429;52.586;14.322;2022-07-29T01:58:10;101895.19;;;11.23;64.28
4830;BME280;2429;52.586;14.322;2022-07-29T02:00:38;101897.47;;;11.13;63.86
4830;BME280;2429;52.586;14.322;2022-07-29T02:03:10;101886.34;;;11.07;64.08
4830;BME280;2429;52.586;14.322;2022-07-29T02:05:38;101889.47;;;10.97;64.23
4830;BME280;2429;52.586;14.322;2022-07-29T02:08:05;101885.34;;;10.92;63.67
4830;BME280;2429;52.586;14.322;2022-07-29T02:10:35;101882.09;;;10.87;63.92
4830;BME280;2429;52.586;14.322;2022-07-29T02:13:03;101868.19;;;10.83;63.59
4830;BME280;2429;52.586;14.322;2022-07-29T02:15:31;101866.44;;;10.83;63.90
4830;BME280;2429;52.586;14.322;2022-07-29T02:18:04;101860.53;;;10.78;64.17
4830;BME280;2429;52.586;14.322;2022-07-29T02:20:34;101862.69;;;10.70;64.73
4830;BME280;2429;52.586;14.322;2022-07-29T02:23:01;101857.66;;;10.65;65.23
4830;BME280;2429;52.586;14.322;2022-07-29T02:25:28;101858.44;;;10.67;64.99
4830;BME280;2429;52.586;14.322;2022-07-29T02:28:04;101852.00;;;10.73;64.65
4830;BME280;2429;52.586;14.322;2022-07-29T02:30:32;101850.38;;;10.71;65.30
4830;BME280;2429;52.586;14.322;2022-07-29T02:32:59;101852.16;;;10.70;65.81
4830;BME280;2429;52.586;14.322;2022-07-29T02:35:27;101857.59;;;10.67;66.15
4830;BME280;2429;52.586;14.322;2022-07-29T02:38:00;101860.00;;;10.72;65.86
4830;BME280;2429;52.586;14.322;2022-07-29T02:40:47;101852.31;;;10.67;66.55
4830;BME280;2429;52.586;14.322;2022-07-29T02:43:14;101866.19;;;10.71;66.55
4830;BME280;2429;52.586;14.322;2022-07-29T02:45:42;101865.19;;;10.73;66.74
4830;BME280;2429;52.586;14.322;2022-07-29T02:48:10;101861.38;;;10.79;66.81
4830;BME280;2429;52.586;14.322;2022-07-29T02:51:01;101861.44;;;10.77;67.11
4830;BME280;2429;52.586;14.322;2022-07-29T02:53:30;101872.84;;;10.78;66.40
4830;BME280;2429;52.586;14.322;2022-07-29T02:56:01;101874.13;;;10.88;66.81
4830;BME280;2429;52.586;14.322;2022-07-29T02:58:32;101873.31;;;10.86;66.94
4830;BME280;2429;52.586;14.322;2022-07-29T03:01:04;101877.06;;;10.82;66.67
4830;BME280;2429;52.586;14.322;2022-07-29T03:03:36;101878.75;;;10.83;67.09
4830;BME280;2429;52.586;14.322;2022-07-29T03:06:04;101882.41;;;10.80;67.57
4830;BME280;2429;52.586;14.322;2022-07-29T03:08:32;101885.16;;;10.77;67.45
4830;BME280;2429;52.586;14.322;2022-07-29T03:10:59;101881.69;;;10.77;67.22
4830;BME280;2429;52.586;14.322;2022-07-29T03:13:27;101879.69;;;10.82;66.67
4830;BME280;2429;52.586;14.322;2022-07-29T03:15:56;101873.63;;;10.80;67.00
4830;BME280;2429;52.586;14.322;2022-07-29T03:18:24;101878.97;;;10.78;66.22
4830;BME280;2429;52.586;14.322;2022-07-29T03:20:52;101867.66;;;10.76;66.34
4830;BME280;2429;52.586;14.322;2022-07-29T03:23:19;101878.97;;;10.78;66.46
4830;BME280;2429;52.586;14.322;2022-07-29T03:25:47;101877.56;;;10.71;66.59
4830;BME280;2429;52.586;14.322;2022-07-29T03:28:15;101872.44;;;10.68;65.84
4830;BME280;2429;52.586;14.322;2022-07-29T03:30:44;101873.38;;;10.67;66.11
4830;BME280;2429;52.586;14.322;2022-07-29T03:33:12;101886.31;;;10.72;65.18
4830;BME280;2429;52.586;14.322;2022-07-29T03:35:39;101880.25;;;10.70;65.54
4830;BME280;2429;52.586;14.322;2022-07-29T03:38:06;101888.16;;;10.70;65.31
4830;BME280;2429;52.586;14.322;2022-07-29T03:40:42;101884.53;;;10.72;65.75
4830;BME280;2429;52.586;14.322;2022-07-29T03:43:11;101878.19;;;10.76;65.53
4830;BME280;2429;52.586;14.322;2022-07-29T03:45:39;101884.69;;;10.69;65.36
4830;BME280;2429;52.586;14.322;2022-07-29T03:48:10;101877.56;;;10.71;65.24
4830;BME280;2429;52.586;14.322;2022-07-29T03:50:38;101884.25;;;10.78;65.67
4830;BME280;2429;52.586;14.322;2022-07-29T03:53:05;101887.50;;;10.83;65.17
4830;BME280;2429;52.586;14.322;2022-07-29T03:55:33;101892.56;;;10.88;65.84
4830;BME280;2429;52.586;14.322;2022-07-29T03:58:02;101887.28;;;11.06;66.09
4830;BME280;2429;52.586;14.322;2022-07-29T04:00:30;101885.22;;;11.12;65.81
4830;BME280;2429;52.586;14.322;2022-07-29T04:02:57;101887.38;;;11.21;65.85
4830;BME280;2429;52.586;14.322;2022-07-29T04:05:24;101881.47;;;11.34;66.02
4830;BME280;2429;52.586;14.322;2022-07-29T04:07:51;101885.72;;;11.54;65.71
4830;BME280;2429;52.586;14.322;2022-07-29T04:10:18;101885.31;;;11.62;65.66
4830;BME280;2429;52.586;14.322;2022-07-29T04:12:58;101876.03;;;11.72;65.33
4830;BME280;2429;52.586;14.322;2022-07-29T04:15:25;101876.22;;;11.85;65.21
4830;BME280;2429;52.586;14.322;2022-07-29T04:17:57;101881.88;;;11.95;64.98
4830;BME280;2429;52.586;14.322;2022-07-29T04:20:24;101872.50;;;12.05;64.48
4830;BME280;2429;52.586;14.322;2022-07-29T04:22:52;101879.84;;;12.16;65.02
4830;BME280;2429;52.586;14.322;2022-07-29T04:25:19;101874.22;;;12.22;64.91
4830;BME280;2429;52.586;14.322;2022-07-29T04:27:46;101865.81;;;12.31;65.01
4830;BME280;2429;52.586;14.322;2022-07-29T04:30:29;101859.41;;;12.51;64.38
4830;BME280;2429;52.586;14.322;2022-07-29T04:32:57;101865.09;;;12.59;64.18
4830;BME280;2429;52.586;14.322;2022-07-29T04:35:25;101868.66;;;12.74;63.69
4830;BME280;2429;52.586;14.322;2022-07-29T04:37:51;101868.41;;;12.79;64.29
4830;BME280;2429;52.586;14.322;2022-07-29T04:40:19;101865.91;;;12.92;64.34
4830;BME280;2429;52.586;14.322;2022-07-29T04:42:46;101866.81;;;13.07;63.53
4830;BME280;2429;52.586;14.322;2022-07-29T04:45:14;101871.38;;;13.19;63.41
4830;BME280;2429;52.586;14.322;2022-07-29T04:47:41;101875.28;;;13.42;62.44
4830;BME280;2429;52.586;14.322;2022-07-29T04:50:09;101868.78;;;13.62;62.83
4830;BME280;2429;52.586;14.322;2022-07-29T04:52:36;101875.78;;;13.78;61.56
4830;BME280;2429;52.586;14.322;2022-07-29T04:55:03;101875.31;;;13.85;61.92
4830;BME280;2429;52.586;14.322;2022-07-29T04:57:31;101876.66;;;13.93;61.52
4830;BME280;2429;52.586;14.322;2022-07-29T04:59:57;101871.75;;;14.01;61.65
4830;BME280;2429;52.586;14.322;2022-07-29T05:02:25;101874.56;;;14.12;62.06
4830;BME280;2429;52.586;14.322;2022-07-29T05:04:52;101875.78;;;14.21;61.69
4830;BME280;2429;52.586;14.322;2022-07-29T05:07:18;101865.03;;;14.37;61.35
4830;BME280;2429;52.586;14.322;2022-07-29T05:09:46;101870.41;;;14.50;60.70
4830;BME280;2429;52.586;14.322;2022-07-29T05:12:12;101870.94;;;14.55;60.43
4830;BME280;2429;52.586;14.322;2022-07-29T05:14:39;101863.16;;;14.66;59.99
4830;BME280;2429;52.586;14.322;2022-07-29T05:17:06;101865.50;;;14.71;59.49
4830;BME280;2429;52.586;14.322;2022-07-29T05:19:33;101868.41;;;14.81;59.51
4830;BME280;2429;52.586;14.322;2022-07-29T05:22:05;101870.75;;;14.85;59.19
4830;BME280;2429;52.586;14.322;2022-07-29T05:24:32;101865.38;;;15.00;59.09
4830;BME280;2429;52.586;14.322;2022-07-29T05:26:59;101865.31;;;15.14;58.87
4830;BME280;2429;52.586;14.322;2022-07-29T05:29:26;101871.38;;;15.29;58.19
4830;BME280;2429;52.586;14.322;2022-07-29T05:32:11;101868.22;;;15.50;57.14
4830;BME280;2429;52.586;14.322;2022-07-29T05:34:38;101873.22;;;15.67;57.39
4830;BME280;2429;52.586;14.322;2022-07-29T05:37:19;101865.09;;;15.82;56.48
4830;BME280;2429;52.586;14.322;2022-07-29T05:39:47;101868.41;;;15.85;56.40
4830;BME280;2429;52.586;14.322;2022-07-29T05:42:26;101869.03;;;15.89;56.47
4830;BME280;2429;52.586;14.322;2022-07-29T05:44:53;101864.03;;;15.84;56.26
4830;BME280;2429;52.586;14.322;2022-07-29T05:47:20;101869.03;;;16.02;55.89
4830;BME280;2429;52.586;14.322;2022-07-29T05:49:47;101864.34;;;16.05;55.30
4830;BME280;2429;52.586;14.322;2022-07-29T05:52:14;101854.53;;;16.43;54.71
4830;BME280;2429;52.586;14.322;2022-07-29T05:54:41;101860.84;;;16.90;53.32
4830;BME280;2429;52.586;14.322;2022-07-29T05:57:14;101860.22;;;17.33;51.98
4830;BME280;2429;52.586;14.322;2022-07-29T05:59:41;101859.25;;;17.46;51.42
4830;BME280;2429;52.586;14.322;2022-07-29T06:02:08;101851.84;;;17.27;51.33
4830;BME280;2429;52.586;14.322;2022-07-29T06:04:35;101848.22;;;17.16;52.06
4830;BME280;2429;52.586;14.322;2022-07-29T06:07:02;101846.53;;;17.15;52.54
4830;BME280;2429;52.586;14.322;2022-07-29T06:09:29;101844.09;;;17.24;52.03
4830;BME280;2429;52.586;14.322;2022-07-29T06:11:56;101840.63;;;17.34;51.94
4830;BME280;2429;52.586;14.322;2022-07-29T06:14:24;101846.59;;;17.95;51.28
4830;BME280;2429;52.586;14.322;2022-07-29T06:16:52;101849.00;;;18.85;48.92
4830;BME280;2429;52.586;14.322;2022-07-29T06:19:19;101851.78;;;19.78;45.53
4830;BME280;2429;52.586;14.322;2022-07-29T06:21:46;101852.16;;;19.63;45.02
4830;BME280;2429;52.586;14.322;2022-07-29T06:24:14;101842.94;;;19.46;45.11
4830;BME280;2429;52.586;14.322;2022-07-29T06:26:42;101842.47;;;19.20;45.57
4830;BME280;2429;52.586;14.322;2022-07-29T06:29:09;101842.50;;;18.99;46.38
4830;BME280;2429;52.586;14.322;2022-07-29T06:31:39;101838.31;;;18.53;47.00
4830;BME280;2429;52.586;14.322;2022-07-29T06:34:06;101845.78;;;18.27;47.36
4830;BME280;2429;52.586;14.322;2022-07-29T06:36:34;101848.91;;;17.77;48.54
4830;BME280;2429;52.586;14.322;2022-07-29T06:39:03;101852.13;;;17.46;49.69
4830;BME280;2429;52.586;14.322;2022-07-29T06:41:31;101850.97;;;17.04;50.93
4830;BME280;2429;52.586;14.322;2022-07-29T06:43:58;101852.06;;;17.12;50.90
4830;BME280;2429;52.586;14.322;2022-07-29T06:46:25;101860.06;;;17.24;51.24
4830;BME280;2429;52.586;14.322;2022-07-29T06:48:52;101864.56;;;17.23;51.07
4830;BME280;2429;52.586;14.322;2022-07-29T06:51:20;101865.91;;;17.40;50.77
4830;BME280;2429;52.586;14.322;2022-07-29T06:53:49;101863.03;;;17.43;50.37
4830;BME280;2429;52.586;14.322;2022-07-29T06:56:29;101866.63;;;17.53;50.37
4830;BME280;2429;52.586;14.322;2022-07-29T06:58:56;101853.69;;;18.05;49.28
4830;BME280;2429;52.586;14.322;2022-07-29T07:01:23;101856.84;;;18.54;48.01
4830;BME280;2429;52.586;14.322;2022-07-29T07:03:51;101856.75;;;19.09;47.19
4830;BME280;2429;52.586;14.322;2022-07-29T07:06:17;101865.97;;;19.48;45.55
4830;BME280;2429;52.586;14.322;2022-07-29T07:08:44;101866.84;;;19.48;44.72
4830;BME280;2429;52.586;14.322;2022-07-29T07:11:11;101868.16;;;19.94;44.01
4830;BME280;2429;52.586;14.322;2022-07-29T07:13:38;101865.34;;;20.06;43.90
4830;BME280;2429;52.586;14.322;2022-07-29T07:16:05;101859.13;;;19.95;43.69
4830;BME280;2429;52.586;14.322;2022-07-29T07:18:32;101864.44;;;20.16;43.32
4830;BME280;2429;52.586;14.322;2022-07-29T07:20:59;101860.00;;;19.96;43.55
4830;BME280;2429;52.586;14.322;2022-07-29T07:23:26;101849.28;;;20.56;42.95
4830;BME280;2429;52.586;14.322;2022-07-29T07:25:53;101848.66;;;21.31;41.81
4830;BME280;2429;52.586;14.322;2022-07-29T07:28:20;101843.97;;;21.80;40.31
4830;BME280;2429;52.586;14.322;2022-07-29T07:30:51;101846.72;;;21.70;39.77
4830;BME280;2429;52.586;14.322;2022-07-29T07:33:18;101842.47;;;21.20;40.50
4830;BME280;2429;52.586;14.322;2022-07-29T07:35:45;101841.41;;;20.45;42.64
4830;BME280;2429;52.586;14.322;2022-07-29T07:38:13;101850.38;;;20.34;43.24
4830;BME280;2429;52.586;14.322;2022-07-29T07:40:40;101851.69;;;20.30;43.47
4830;BME280;2429;52.586;14.322;2022-07-29T07:43:08;101860.09;;;20.25;43.44
4830;BME280;2429;52.586;14.322;2022-07-29T07:45:35;101854.38;;;20.09;43.64
4830;BME280;2429;52.586;14.322;2022-07-29T07:48:04;101851.25;;;19.84;43.69
4830;BME280;2429;52.586;14.322;2022-07-29T07:50:31;101844.94;;;19.54;44.85
4830;BME280;2429;52.586;14.322;2022-07-29T07:52:58;101850.84;;;19.89;44.23
4830;BME280;2429;52.586;14.322;2022-07-29T07:55:26;101857.34;;;20.06;43.87
4830;BME280;2429;52.586;14.322;2022-07-29T07:57:53;101852.38;;;20.42;43.55
4830;BME280;2429;52.586;14.322;2022-07-29T08:00:21;101848.25;;;20.18;43.99
4830;BME280;2429;52.586;14.322;2022-07-29T08:02:49;101843.38;;;20.43;43.46
4830;BME280;2429;52.586;14.322;2022-07-29T08:05:17;101843.78;;;21.07;42.68
4830;BME280;2429;52.586;14.322;2022-07-29T08:07:47;101848.63;;;21.41;41.82
4830;BME280;2429;52.586;14.322;2022-07-29T08:10:15;101849.75;;;21.38;40.76
4830;BME280;2429;52.586;14.322;2022-07-29T08:13:05;101844.41;;;21.28;41.31
4830;BME280;2429;52.586;14.322;2022-07-29T08:15:33;101853.66;;;22.09;39.43
4830;BME280;2429;52.586;14.322;2022-07-29T08:18:00;101841.69;;;22.67;38.42
4830;BME280;2429;52.586;14.322;2022-07-29T08:20:34;101843.97;;;23.50;37.17
4830;BME280;2429;52.586;14.322;2022-07-29T08:23:02;101838.66;;;24.18;35.52
4830;BME280;2429;52.586;14.322;2022-07-29T08:25:29;101835.91;;;24.85;34.57
4830;BME280;2429;52.586;14.322;2022-07-29T08:27:56;101834.19;;;26.36;32.29
4830;BME280;2429;52.586;14.322;2022-07-29T08:30:23;101827.94;;;27.42;30.34
4830;BME280;2429;52.586;14.322;2022-07-29T08:32:50;101833.25;;;28.01;28.89
4830;BME280;2429;52.586;14.322;2022-07-29T08:35:22;101832.66;;;28.06;28.92
4830;BME280;2429;52.586;14.322;2022-07-29T08:37:49;101829.00;;;29.07;27.58
4830;BME280;2429;52.586;14.322;2022-07-29T08:40:16;101826.84;;;28.67;27.50
4830;BME280;2429;52.586;14.322;2022-07-29T08:42:43;101833.94;;;28.25;28.21
4830;BME280;2429;52.586;14.322;2022-07-29T08:45:10;101829.97;;;27.69;29.27
4830;BME280;2429;52.586;14.322;2022-07-29T08:47:38;101829.47;;;26.53;31.15
4830;BME280;2429;52.586;14.322;2022-07-29T08:50:07;101830.63;;;27.42;29.60
4830;BME280;2429;52.586;14.322;2022-07-29T08:52:40;101822.41;;;27.80;29.53
4830;BME280;2429;52.586;14.322;2022-07-29T08:55:08;101823.81;;;27.01;29.58
4830;BME280;2429;52.586;14.322;2022-07-29T08:57:37;101814.03;;;27.15;29.98
4830;BME280;2429;52.586;14.322;2022-07-29T09:00:17;101821.50;;;27.58;29.26
4830;BME280;2429;52.586;14.322;2022-07-29T09:02:45;101818.97;;;27.71;29.40
4830;BME280;2429;52.586;14.322;2022-07-29T09:05:14;101816.28;;;27.56;29.17
4830;BME280;2429;52.586;14.322;2022-07-29T09:07:41;101817.50;;;27.39;29.50
4830;BME280;2429;52.586;14.322;2022-07-29T09:10:09;101819.59;;;26.45;29.70
4830;BME280;2429;52.586;14.322;2022-07-29T09:12:36;101811.34;;;26.16;30.82
4830;BME280;2429;52.586;14.322;2022-07-29T09:15:04;101817.69;;;26.00;31.53
4830;BME280;2429;52.586;14.322;2022-07-29T09:20:11;101815.97;;;25.28;32.43
4830;BME280;2429;52.586;14.322;2022-07-29T09:22:39;101811.63;;;25.10;32.33
4830;BME280;2429;52.586;14.322;2022-07-29T09:25:08;101806.00;;;25.28;32.58
4830;BME280;2429;52.586;14.322;2022-07-29T09:27:35;101805.19;;;25.99;31.70
4830;BME280;2429;52.586;14.322;2022-07-29T09:30:06;101807.16;;;26.59;30.14
4830;BME280;2429;52.586;14.322;2022-07-29T09:32:33;101797.69;;;28.48;29.35
4830;BME280;2429;52.586;14.322;2022-07-29T09:35:21;101783.81;;;29.14;27.05
4830;BME280;2429;52.586;14.322;2022-07-29T09:37:49;101781.88;;;29.36;27.65
4830;BME280;2429;52.586;14.322;2022-07-29T09:40:17;101788.38;;;28.79;27.81
4830;BME280;2429;52.586;14.322;2022-07-29T09:42:45;101790.28;;;28.85;27.66
4830;BME280;2429;52.586;14.322;2022-07-29T09:45:12;101782.09;;;27.85;28.80
4830;BME280;2429;52.586;14.322;2022-07-29T09:47:46;101783.03;;;27.77;29.25
4830;BME280;2429;52.586;14.322;2022-07-29T09:50:15;101781.31;;;27.40;29.83
4830;BME280;2429;52.586;14.322;2022-07-29T09:52:47;101771.56;;;26.94;30.84
4830;BME280;2429;52.586;14.322;2022-07-29T09:55:15;101776.88;;;27.17;30.74
4830;BME280;2429;52.586;14.322;2022-07-29T09:57:45;101769.06;;;26.54;31.09
4830;BME280;2429;52.586;14.322;2022-07-29T10:00:14;101767.69;;;26.73;31.36
4830;BME280;2429;52.586;14.322;2022-07-29T10:02:42;101780.81;;;26.61;31.45
4830;BME280;2429;52.586;14.322;2022-07-29T10:05:17;101771.88;;;26.15;31.89
4830;BME280;2429;52.586;14.322;2022-07-29T10:07:45;101775.88;;;25.95;32.28
4830;BME280;2429;52.586;14.322;2022-07-29T10:10:23;101766.03;;;25.48;33.31
4830;BME280;2429;52.586;14.322;2022-07-29T10:12:54;101773.13;;;25.41;33.35
4830;BME280;2429;52.586;14.322;2022-07-29T10:15:25;101767.22;;;24.81;34.41
4830;BME280;2429;52.586;14.322;2022-07-29T10:17:53;101775.94;;;25.08;33.87
4830;BME280;2429;52.586;14.322;2022-07-29T10:20:21;101774.00;;;24.44;34.24
4830;BME280;2429;52.586;14.322;2022-07-29T10:22:49;101769.91;;;24.24;35.56
4830;BME280;2429;52.586;14.322;2022-07-29T10:25:19;101768.59;;;24.44;35.06
4830;BME280;2429;52.586;14.322;2022-07-29T10:27:47;101777.25;;;23.80;36.30
4830;BME280;2429;52.586;14.322;2022-07-29T10:30:15;101778.31;;;23.53;36.31
4830;BME280;2429;52.586;14.322;2022-07-29T10:43:35;101765.75;;;25.35;34.31
4830;BME280;2429;52.586;14.322;2022-07-29T10:46:08;101766.38;;;26.08;33.10
4830;BME280;2429;52.586;14.322;2022-07-29T10:48:44;101760.25;;;26.37;32.41
4830;BME280;2429;52.586;14.322;2022-07-29T10:51:23;101764.75;;;26.98;31.69
4830;BME280;2429;52.586;14.322;2022-07-29T10:53:51;101756.75;;;27.71;30.17
4830;BME280;2429;52.586;14.322;2022-07-29T10:56:37;101747.78;;;28.85;28.38
4830;BME280;2429;52.586;14.322;2022-07-29T11:01:48;101754.25;;;28.84;28.41
4830;BME280;2429;52.586;14.322;2022-07-29T11:07:13;101739.25;;;29.30;27.28
4830;BME280;2429;52.586;14.322;2022-07-29T11:09:43;101737.38;;;30.73;26.43
4830;BME280;2429;52.586;14.322;2022-07-29T11:14:58;101727.50;;;33.32;23.23
4830;BME280;2429;52.586;14.322;2022-07-29T11:17:25;101725.88;;;34.15;21.70
4830;BME280;2429;52.586;14.322;2022-07-29T11:22:49;101723.84;;;34.70;20.16
4830;BME280;2429;52.586;14.322;2022-07-29T11:25:18;101721.94;;;35.98;19.49
4830;BME280;2429;52.586;14.322;2022-07-29T11:28:09;101722.75;;;34.00;20.61
4830;BME280;2429;52.586;14.322;2022-07-29T11:30:47;101734.00;;;33.01;21.56
4830;BME280;2429;52.586;14.322;2022-07-29T11:33:26;101727.78;;;32.93;21.35
4830;BME280;2429;52.586;14.322;2022-07-29T11:36:14;101737.53;;;32.14;22.07
4830;BME280;2429;52.586;14.322;2022-07-29T11:38:42;101730.41;;;30.97;23.50
4830;BME280;2429;52.586;14.322;2022-07-29T11:41:28;101723.53;;;32.61;22.20
4830;BME280;2429;52.586;14.322;2022-07-29T11:43:59;101711.75;;;34.19;20.25
4830;BME280;2429;52.586;14.322;2022-07-29T11:49:20;101723.56;;;36.16;18.28
4830;BME280;2429;52.586;14.322;2022-07-29T11:51:58;101711.50;;;34.56;19.31
4830;BME280;2429;52.586;14.322;2022-07-29T11:54:33;101705.22;;;34.43;20.00
4830;BME280;2429;52.586;14.322;2022-07-29T11:57:21;101709.88;;;33.77;20.02
4830;BME280;2429;52.586;14.322;2022-07-29T11:59:48;101715.28;;;33.35;20.65
4830;BME280;2429;52.586;14.322;2022-07-29T12:02:16;101699.88;;;34.60;19.59
4830;BME280;2429;52.586;14.322;2022-07-29T12:05:03;101700.66;;;34.73;19.50
4830;BME280;2429;52.586;14.322;2022-07-29T12:07:37;101695.81;;;34.15;19.22
4830;BME280;2429;52.586;14.322;2022-07-29T12:10:07;101695.47;;;34.59;19.59
4830;BME280;2429;52.586;14.322;2022-07-29T12:12:50;101695.31;;;34.54;19.34
4830;BME280;2429;52.586;14.322;2022-07-29T12:15:18;101695.59;;;34.17;19.28
4830;BME280;2429;52.586;14.322;2022-07-29T12:17:47;101686.44;;;32.97;20.70
4830;BME280;2429;52.586;14.322;2022-07-29T12:20:25;101693.59;;;31.46;22.57
4830;BME280;2429;52.586;14.322;2022-07-29T12:22:53;101682.56;;;31.34;22.91
4830;BME280;2429;52.586;14.322;2022-07-29T12:25:22;101685.53;;;30.74;23.46
4830;BME280;2429;52.586;14.322;2022-07-29T12:28:00;101675.31;;;30.49;23.71
4830;BME280;2429;52.586;14.322;2022-07-29T12:30:34;101682.97;;;29.32;24.57
4830;BME280;2429;52.586;14.322;2022-07-29T12:33:09;101693.25;;;29.50;24.98
4830;BME280;2429;52.586;14.322;2022-07-29T12:35:36;101684.66;;;28.56;25.83
4830;BME280;2429;52.586;14.322;2022-07-29T12:38:03;101679.81;;;28.80;25.92
4830;BME280;2429;52.586;14.322;2022-07-29T12:40:30;101676.53;;;28.28;25.63
4830;BME280;2429;52.586;14.322;2022-07-29T12:43:07;101669.94;;;28.37;26.60
4830;BME280;2429;52.586;14.322;2022-07-29T12:45:40;101666.34;;;28.02;26.82
4830;BME280;2429;52.586;14.322;2022-07-29T12:48:07;101666.19;;;28.38;27.78
4830;BME280;2429;52.586;14.322;2022-07-29T12:50:51;101678.16;;;28.22;26.44
4830;BME280;2429;52.586;14.322;2022-07-29T12:53:19;101664.66;;;27.58;27.08
4830;BME280;2429;52.586;14.322;2022-07-29T12:55:47;101669.38;;;26.97;28.36
4830;BME280;2429;52.586;14.322;2022-07-29T13:00:59;101665.38;;;27.66;27.20
4830;BME280;2429;52.586;14.322;2022-07-29T13:03:27;101669.72;;;27.09;27.71
4830;BME280;2429;52.586;14.322;2022-07-29T13:06:01;101674.38;;;26.86;27.58
4830;BME280;2429;52.586;14.322;2022-07-29T13:08:28;101674.78;;;26.97;27.09
4830;BME280;2429;52.586;14.322;2022-07-29T13:10:55;101672.66;;;26.93;27.46
4830;BME280;2429;52.586;14.322;2022-07-29T13:13:22;101661.25;;;26.53;28.42
4830;BME280;2429;52.586;14.322;2022-07-29T13:16:04;101663.78;;;26.54;28.40
4830;BME280;2429;52.586;14.322;2022-07-29T13:18:32;101665.00;;;26.28;28.76
4830;BME280;2429;52.586;14.322;2022-07-29T13:21:10;101661.13;;;25.93;29.12
4830;BME280;2429;52.586;14.322;2022-07-29T13:23:37;101651.09;;;26.40;28.73
4830;BME280;2429;52.586;14.322;2022-07-29T13:26:08;101663.47;;;26.34;28.36
4830;BME280;2429;52.586;14.322;2022-07-29T13:28:35;101646.28;;;26.27;28.14
4830;BME280;2429;52.586;14.322;2022-07-29T13:31:02;101668.72;;;25.89;29.01
4830;BME280;2429;52.586;14.322;2022-07-29T13:33:29;101653.38;;;26.28;29.07
4830;BME280;2429;52.586;14.322;2022-07-29T13:35:56;101653.78;;;26.40;28.30
4830;BME280;2429;52.586;14.322;2022-07-29T13:38:23;101659.75;;;26.12;29.02
4830;BME280;2429;52.586;14.322;2022-07-29T13:40:56;101655.38;;;26.49;27.79
4830;BME280;2429;52.586;14.322;2022-07-29T13:43:25;101643.13;;;26.23;28.68
4830;BME280;2429;52.586;14.322;2022-07-29T13:45:52;101642.00;;;26.56;28.71
4830;BME280;2429;52.586;14.322;2022-07-29T13:48:19;101636.84;;;26.61;28.25
4830;BME280;2429;52.586;14.322;2022-07-29T13:50:46;101633.34;;;26.22;28.75
4830;BME280;2429;52.586;14.322;2022-07-29T13:53:14;101630.63;;;26.07;28.64
4830;BME280;2429;52.586;14.322;2022-07-29T13:55:43;101637.19;;;25.67;29.07
4830;BME280;2429;52.586;14.322;2022-07-29T13:58:10;101632.97;;;25.72;29.13
4830;BME280;2429;52.586;14.322;2022-07-29T14:00:37;101629.97;;;26.05;29.05